Time;durP1;ratioP1;P1;durP2;ratioP2;P2;SDS_P1;SDS_P2;PMS_P1;PMS_P2;Temp;Humidity;BMP_temperature;BMP_pressure;BME280_temperature;BME280_humidity;BME280_pressure;Samples;Min_cycle;Max_cycle;Signal;HPM_P1;HPM_P2
2023/03/29 00:00:15;;;;;;;5.10;2.20;;;;;;;1.83;56.07;100783.41;4403202;32;33843;-77
2023/03/29 00:02:47;;;;;;;6.40;2.60;;;;;;;1.85;55.57;100782.78;4385972;32;32876;-79
2023/03/29 00:05:17;;;;;;;5.00;2.42;;;;;;;1.28;57.45;100785.00;4416093;32;34193;-76
2023/03/29 00:07:45;;;;;;;6.50;2.62;;;;;;;1.94;56.63;100787.88;4399463;32;32310;-79
2023/03/29 00:10:12;;;;;;;6.65;2.78;;;;;;;2.21;55.54;100783.56;4421650;32;33424;-76
2023/03/29 00:12:40;;;;;;;5.82;2.45;;;;;;;1.55;56.86;100788.44;4437241;32;34682;-76
2023/03/29 00:15:08;;;;;;;5.53;2.67;;;;;;;0.95;59.33;100788.63;4376049;32;33807;-76
2023/03/29 00:17:36;;;;;;;6.85;2.60;;;;;;;0.63;60.32;100781.97;4387718;32;34078;-79
2023/03/29 00:20:08;;;;;;;5.97;2.85;;;;;;;0.39;62.07;100774.59;4435303;32;33299;-75
2023/03/29 00:22:38;;;;;;;5.83;3.07;;;;;;;0.72;59.34;100775.25;4427552;32;33396;-78
2023/03/29 00:25:07;;;;;;;8.68;3.80;;;;;;;0.73;60.78;100782.13;4423666;32;33948;-77
2023/03/29 00:27:34;;;;;;;11.12;5.28;;;;;;;0.74;60.25;100778.84;4440585;32;33422;-79
2023/03/29 00:30:04;;;;;;;15.55;5.47;;;;;;;1.21;57.99;100777.50;4409806;32;34359;-77
2023/03/29 00:32:33;;;;;;;13.50;5.25;;;;;;;1.09;57.42;100772.13;4386196;32;31970;-77
2023/03/29 00:35:00;;;;;;;10.32;4.30;;;;;;;1.34;56.90;100772.84;4410818;32;33508;-77
2023/03/29 00:37:31;;;;;;;12.77;5.67;;;;;;;1.60;56.27;100769.34;4405587;32;33274;-78
2023/03/29 00:39:58;;;;;;;19.80;8.35;;;;;;;1.72;56.16;100770.53;4390029;32;33120;-79
2023/03/29 00:42:26;;;;;;;29.87;11.05;;;;;;;1.86;55.90;100768.38;4383244;32;90588;-79
2023/03/29 00:45:04;;;;;;;32.70;13.43;;;;;;;2.29;54.78;100762.16;4419898;32;33591;-77
2023/03/29 00:47:45;;;;;;;30.17;12.55;;;;;;;1.06;56.85;100766.69;4455116;32;32320;-77
2023/03/29 00:50:17;;;;;;;27.77;10.70;;;;;;;1.93;55.02;100768.19;4387356;32;33393;-79
2023/03/29 00:52:58;;;;;;;22.75;9.00;;;;;;;2.44;53.76;100758.47;4425303;32;33165;-81
2023/03/29 00:55:30;;;;;;;24.75;9.68;;;;;;;2.39;53.04;100763.91;4444066;32;33159;-77
2023/03/29 00:57:59;;;;;;;19.30;8.43;;;;;;;2.36;53.20;100764.53;4393882;32;33205;-77
2023/03/29 01:00:32;;;;;;;21.00;8.45;;;;;;;2.51;52.29;100753.16;4413960;32;33502;-80
2023/03/29 01:03:01;;;;;;;25.67;9.80;;;;;;;2.31;53.40;100758.09;4447615;32;34196;-77
2023/03/29 01:05:36;;;;;;;30.95;11.70;;;;;;;2.22;53.94;100749.56;4381832;32;34005;-80
2023/03/29 01:08:07;;;;;;;30.55;12.77;;;;;;;1.11;56.69;100750.19;4432364;32;32619;-79
2023/03/29 01:10:46;;;;;;;29.50;12.00;;;;;;;0.57;58.66;100742.37;4437645;32;33307;-77
2023/03/29 01:13:18;;;;;;;37.05;12.98;;;;;;;0.13;60.75;100751.56;4452855;32;33763;-80
2023/03/29 01:15:46;;;;;;;37.40;15.57;;;;;;;0.36;60.51;100743.69;4440309;32;33544;-76
2023/03/29 01:18:15;;;;;;;43.25;17.67;;;;;;;0.04;61.47;100734.44;4403009;32;33358;-80
2023/03/29 01:20:45;;;;;;;41.05;17.55;;;;;;;0.04;62.07;100737.91;4427900;32;33761;-80
2023/03/29 01:23:31;;;;;;;49.00;18.75;;;;;;;-0.15;62.53;100736.81;4418420;32;33559;-80
2023/03/29 01:26:11;;;;;;;48.85;16.75;;;;;;;-0.37;63.85;100734.59;4386977;32;33160;-81
2023/03/29 01:28:46;;;;;;;41.37;15.23;;;;;;;-0.70;64.83;100732.91;4396532;32;32785;-80
2023/03/29 01:31:20;;;;;;;46.08;16.73;;;;;;;-0.86;65.52;100734.59;4437656;32;32709;-80
2023/03/29 01:33:52;;;;;;;46.28;17.58;;;;;;;-0.54;64.33;100729.41;4388029;32;32570;-77
2023/03/29 01:36:33;;;;;;;41.35;15.25;;;;;;;-0.80;64.78;100725.06;4434100;32;33707;-77
2023/03/29 01:39:05;;;;;;;51.05;18.45;;;;;;;-0.82;64.76;100742.69;4382604;32;32494;-78
2023/03/29 01:42:11;;;;;;;57.55;21.67;;;;;;;-0.88;65.34;100731.00;4448534;32;34427;-78
2023/03/29 01:44:45;;;;;;;82.50;31.75;;;;;;;-0.50;64.36;100731.50;4408359;32;33222;-79
2023/03/29 01:47:19;;;;;;;72.47;28.05;;;;;;;-0.52;64.15;100735.53;4381752;32;34161;-78
2023/03/29 01:49:57;;;;;;;54.73;21.73;;;;;;;-0.36;63.69;100736.41;4393193;32;33454;-78
2023/03/29 01:52:32;;;;;;;54.87;20.97;;;;;;;-0.34;63.32;100740.00;4430148;32;33804;-77
2023/03/29 01:55:11;;;;;;;59.40;23.08;;;;;;;-0.53;63.51;100737.19;4395401;32;33316;-81
2023/03/29 01:57:43;;;;;;;48.90;19.87;;;;;;;0.44;61.25;100729.16;4388182;32;33354;-78
2023/03/29 02:00:14;;;;;;;46.37;18.25;;;;;;;2.01;56.05;100723.81;4388648;32;33950;-80
2023/03/29 02:02:44;;;;;;;59.20;23.25;;;;;;;2.22;54.99;100729.13;4445362;32;33628;-77
2023/03/29 02:05:13;;;;;;;53.38;19.00;;;;;;;2.05;55.10;100732.66;4417862;32;34384;-77
2023/03/29 02:07:42;;;;;;;48.95;17.48;;;;;;;1.76;55.63;100731.75;4446572;32;33786;-77
2023/03/29 02:10:10;;;;;;;46.47;18.17;;;;;;;1.42;56.97;100727.63;4380146;32;33838;-78
2023/03/29 02:12:38;;;;;;;54.88;21.52;;;;;;;-0.05;62.30;100729.34;4400600;32;33396;-80
2023/03/29 02:15:11;;;;;;;75.07;29.10;;;;;;;-0.37;64.52;100739.66;4434453;32;33748;-78
2023/03/29 02:17:39;;;;;;;74.72;28.77;;;;;;;-0.23;64.69;100729.28;4432694;32;33688;-80
2023/03/29 02:20:12;;;;;;;84.32;30.75;;;;;;;1.48;59.13;100729.88;4403871;32;34256;-78
2023/03/29 02:22:45;;;;;;;71.10;29.25;;;;;;;0.37;61.62;100732.75;4422536;32;33181;-80
2023/03/29 02:25:14;;;;;;;48.33;18.12;;;;;;;0.43;61.42;100727.38;4434409;32;33856;-79
2023/03/29 02:27:43;;;;;;;32.55;13.85;;;;;;;-0.26;63.64;100734.03;4386696;32;33664;-80
2023/03/29 02:30:11;;;;;;;24.37;10.43;;;;;;;-0.03;62.40;100727.84;4369203;32;34321;-79
2023/03/29 02:32:39;;;;;;;27.20;9.43;;;;;;;-0.34;63.38;100731.47;4415574;32;34515;-79
2023/03/29 02:35:12;;;;;;;21.98;8.90;;;;;;;-0.62;63.95;100729.53;4404523;32;33605;-81
2023/03/29 02:37:43;;;;;;;20.17;7.72;;;;;;;-0.74;64.82;100725.69;4394387;32;33554;-80
2023/03/29 02:40:12;;;;;;;18.50;7.62;;;;;;;-0.75;64.90;100734.09;4370251;32;33298;-77
2023/03/29 02:42:41;;;;;;;19.58;8.13;;;;;;;-0.40;63.48;100739.38;4384747;32;33639;-78
2023/03/29 02:45:11;;;;;;;17.83;7.87;;;;;;;-0.08;62.83;100734.09;4389456;32;33835;-77
2023/03/29 02:47:50;;;;;;;20.92;8.38;;;;;;;-0.18;62.72;100754.31;4390239;32;33030;-78
2023/03/29 02:50:19;;;;;;;22.37;9.02;;;;;;;-0.33;63.41;100749.44;4388904;32;32943;-76
2023/03/29 02:52:52;;;;;;;34.42;13.15;;;;;;;-0.58;64.05;100748.53;4420118;32;34489;-78
2023/03/29 02:55:22;;;;;;;46.50;16.42;;;;;;;-0.74;64.35;100752.78;4422546;32;32905;-77
2023/03/29 02:57:50;;;;;;;62.13;23.57;;;;;;;-0.57;64.09;100750.34;4426969;32;33870;-79
2023/03/29 03:00:18;;;;;;;73.00;27.85;;;;;;;-0.41;63.18;100750.28;4388056;32;34411;-78
2023/03/29 03:02:47;;;;;;;77.40;29.95;;;;;;;-0.30;62.44;100746.31;4415849;32;34384;-76
2023/03/29 03:05:16;;;;;;;90.72;32.63;;;;;;;0.21;60.79;100743.81;4402557;32;34460;-79
2023/03/29 03:07:44;;;;;;;80.62;30.52;;;;;;;0.42;59.97;100740.84;4455037;32;33335;-78
2023/03/29 03:10:12;;;;;;;73.50;29.65;;;;;;;0.58;59.44;100744.19;4399405;32;33487;-79
2023/03/29 03:12:40;;;;;;;60.50;23.73;;;;;;;0.44;59.71;100757.19;4401644;32;33722;-79
2023/03/29 03:15:08;;;;;;;68.40;25.88;;;;;;;0.41;59.88;100754.34;4424390;32;33491;-76
2023/03/29 03:17:38;;;;;;;48.42;19.42;;;;;;;-0.25;61.96;100753.69;4451687;32;34049;-80
2023/03/29 03:20:11;;;;;;;42.37;18.07;;;;;;;-0.63;63.08;100755.69;4389467;32;33235;-79
2023/03/29 03:22:41;;;;;;;36.25;14.85;;;;;;;-0.92;64.56;100765.38;4424302;32;33367;-79
2023/03/29 03:25:10;;;;;;;34.50;14.50;;;;;;;-1.01;65.04;100760.22;4421771;32;34130;-80
2023/03/29 03:27:38;;;;;;;33.85;13.23;;;;;;;-1.08;65.48;100755.25;4406082;32;33910;-76
2023/03/29 03:30:06;;;;;;;33.72;13.40;;;;;;;-0.92;65.16;100761.94;4434672;32;34228;-78
2023/03/29 03:32:37;;;;;;;28.57;12.43;;;;;;;-0.75;64.51;100764.62;4439493;32;32943;-76
2023/03/29 03:35:06;;;;;;;31.45;14.40;;;;;;;0.29;61.52;100758.19;4389136;32;33573;-80
2023/03/29 03:37:34;;;;;;;35.25;15.18;;;;;;;0.70;60.26;100753.81;4449844;32;34110;-79
2023/03/29 03:40:02;;;;;;;37.58;15.93;;;;;;;0.85;59.68;100755.31;4389265;32;33290;-77
2023/03/29 03:42:30;;;;;;;47.53;19.05;;;;;;;-0.23;63.43;100769.13;4427074;32;33874;-79
2023/03/29 03:44:57;;;;;;;50.53;21.60;;;;;;;0.65;60.87;100763.53;4418341;32;32186;-76
2023/03/29 03:47:27;;;;;;;45.53;18.65;;;;;;;0.82;60.53;100765.22;4436658;32;33539;-78
2023/03/29 03:49:55;;;;;;;45.15;17.95;;;;;;;-0.04;62.08;100771.88;4452143;32;33473;-76
2023/03/29 03:52:24;;;;;;;51.85;19.70;;;;;;;0.14;62.37;100781.41;4452916;32;34323;-79
2023/03/29 03:54:51;;;;;;;44.85;17.80;;;;;;;-0.07;62.73;100779.22;4451700;32;33143;-78
2023/03/29 03:57:21;;;;;;;37.80;15.25;;;;;;;-0.33;63.48;100777.47;4436790;32;33750;-76
2023/03/29 03:59:50;;;;;;;38.03;14.43;;;;;;;-0.11;63.07;100775.47;4451998;32;33338;-79
2023/03/29 04:02:19;;;;;;;35.38;14.18;;;;;;;-0.05;62.82;100770.09;4449594;32;33179;-79
2023/03/29 04:04:47;;;;;;;34.33;14.20;;;;;;;-0.33;63.40;100782.56;4415934;32;34495;-78
2023/03/29 04:07:16;;;;;;;30.27;12.68;;;;;;;-0.80;64.98;100781.91;4441830;32;34646;-79
2023/03/29 04:09:44;;;;;;;34.17;14.75;;;;;;;0.02;63.69;100781.78;4451735;32;34765;-76
2023/03/29 04:12:12;;;;;;;95.53;40.70;;;;;;;1.45;58.81;100779.00;4451345;32;34446;-80
2023/03/29 04:14:40;;;;;;;46.60;20.92;;;;;;;2.02;56.11;100776.72;4451004;32;33466;-76
2023/03/29 04:17:08;;;;;;;38.90;16.10;;;;;;;2.09;55.85;100774.00;4412547;32;34032;-77
2023/03/29 04:19:38;;;;;;;35.53;13.20;;;;;;;2.05;55.59;100766.78;4424540;32;33455;-81
2023/03/29 04:22:05;;;;;;;28.33;11.93;;;;;;;1.83;55.78;100773.19;4452119;32;33515;-78
2023/03/29 04:24:33;;;;;;;23.03;10.43;;;;;;;1.96;55.93;100760.81;4451130;32;33014;-79
2023/03/29 04:27:03;;;;;;;26.67;11.00;;;;;;;1.28;57.67;100767.16;4451829;32;32877;-77
2023/03/29 04:29:31;;;;;;;22.37;10.07;;;;;;;1.03;59.30;100768.06;4452193;32;34124;-79
2023/03/29 04:32:00;;;;;;;17.07;8.77;;;;;;;1.15;59.04;100771.81;4450132;32;33430;-76
2023/03/29 04:34:29;;;;;;;23.75;10.45;;;;;;;0.43;61.29;100778.34;4449572;32;31787;-80
2023/03/29 04:36:57;;;;;;;24.85;10.77;;;;;;;0.34;62.69;100785.06;4450385;32;34471;-78
2023/03/29 04:39:32;;;;;;;30.90;11.90;;;;;;;0.71;60.78;100787.09;4384620;32;33153;-77
2023/03/29 04:42:02;;;;;;;41.15;16.60;;;;;;;0.97;60.43;100787.13;4452130;32;34022;-77
2023/03/29 04:44:33;;;;;;;48.42;20.08;;;;;;;0.77;60.59;100787.72;4451135;32;33474;-80
2023/03/29 04:47:02;;;;;;;62.33;24.52;;;;;;;-0.63;66.04;100796.41;4384521;32;33485;-78
2023/03/29 04:49:31;;;;;;;63.42;25.50;;;;;;;-1.05;66.85;100798.78;4451147;32;32534;-77
2023/03/29 04:51:59;;;;;;;87.28;30.52;;;;;;;-0.16;63.92;100801.19;4452177;32;33217;-79
2023/03/29 04:54:27;;;;;;;82.65;31.35;;;;;;;-0.98;67.43;100804.53;4451754;32;33701;-76
2023/03/29 04:56:55;;;;;;;79.37;29.60;;;;;;;-0.85;67.29;100800.91;4393760;32;34291;-79
2023/03/29 04:59:23;;;;;;;69.15;27.35;;;;;;;-1.26;69.62;100806.66;4402873;32;33058;-81
2023/03/29 05:01:51;;;;;;;68.15;26.45;;;;;;;-1.28;70.02;100803.94;4451791;32;33558;-78
2023/03/29 05:04:19;;;;;;;52.72;21.17;;;;;;;-0.57;67.92;100801.25;4451721;32;34631;-81
2023/03/29 05:06:48;;;;;;;47.22;18.50;;;;;;;-0.35;68.22;100799.28;4452122;32;34063;-80
2023/03/29 05:09:17;;;;;;;34.83;13.62;;;;;;;0.34;65.33;100797.81;4407028;32;32820;-80
2023/03/29 05:11:44;;;;;;;29.27;11.65;;;;;;;1.02;61.81;100789.22;4448076;32;34070;-76
2023/03/29 05:14:12;;;;;;;22.37;10.18;;;;;;;0.30;63.82;100799.13;4451789;32;34683;-77
2023/03/29 05:16:41;;;;;;;24.70;9.80;;;;;;;-0.52;65.94;100794.09;4450997;32;33924;-79
2023/03/29 05:19:10;;;;;;;18.30;7.80;;;;;;;-0.18;65.39;100795.03;4407909;32;33117;-78
2023/03/29 05:21:38;;;;;;;13.20;6.75;;;;;;;0.45;63.05;100787.06;4435123;32;34022;-79
2023/03/29 05:24:07;;;;;;;13.13;6.30;;;;;;;1.05;60.25;100779.31;4396750;32;33596;-77
2023/03/29 05:26:38;;;;;;;14.95;6.28;;;;;;;-0.53;65.14;100792.28;4399536;32;33263;-76
2023/03/29 05:29:07;;;;;;;16.58;6.87;;;;;;;-0.28;64.71;100791.53;4436860;32;33431;-81
2023/03/29 05:31:38;;;;;;;13.55;6.55;;;;;;;-0.06;65.25;100783.56;4414220;32;33645;-77
2023/03/29 05:34:06;;;;;;;10.30;5.50;;;;;;;1.32;59.96;100776.91;4452052;32;33559;-78
2023/03/29 05:36:37;;;;;;;10.67;5.30;;;;;;;0.72;61.45;100780.34;4434350;32;33873;-80
2023/03/29 05:39:05;;;;;;;12.43;5.32;;;;;;;0.14;63.25;100789.03;4447990;32;32971;-77
2023/03/29 05:41:33;;;;;;;10.52;5.40;;;;;;;1.17;60.21;100781.41;4427543;32;34066;-78
2023/03/29 05:44:02;;;;;;;9.60;4.33;;;;;;;1.48;58.09;100783.47;4438386;32;33739;-78
2023/03/29 05:46:30;;;;;;;10.18;5.05;;;;;;;0.54;61.86;100793.06;4444295;32;34573;-80
2023/03/29 05:48:58;;;;;;;9.60;5.25;;;;;;;0.24;63.09;100800.19;4419779;32;33627;-78
2023/03/29 05:51:26;;;;;;;9.70;4.80;;;;;;;1.74;58.16;100789.44;4408003;32;33563;-80
2023/03/29 05:53:54;;;;;;;10.43;5.43;;;;;;;1.67;58.39;100798.94;4403462;32;33288;-80
2023/03/29 05:56:22;;;;;;;10.40;5.50;;;;;;;2.18;57.36;100799.50;4411125;32;34081;-80
2023/03/29 05:58:53;;;;;;;10.30;5.10;;;;;;;2.95;54.70;100792.16;4383405;32;32270;-78
2023/03/29 06:01:23;;;;;;;9.57;5.15;;;;;;;2.88;54.20;100792.34;4401387;32;33288;-79
2023/03/29 06:03:51;;;;;;;11.73;5.53;;;;;;;2.89;53.91;100791.56;4392055;32;33738;-76
2023/03/29 06:06:20;;;;;;;8.57;5.03;;;;;;;2.62;55.24;100797.62;4405488;32;34222;-80
2023/03/29 06:08:47;;;;;;;10.93;5.20;;;;;;;2.56;55.43;100800.50;4434872;32;33203;-79
2023/03/29 06:11:16;;;;;;;11.80;5.22;;;;;;;2.85;54.96;100789.50;4395575;32;33334;-79
2023/03/29 06:13:45;;;;;;;10.88;5.60;;;;;;;2.36;55.89;100797.78;4407546;32;33602;-81
2023/03/29 06:16:13;;;;;;;11.13;5.53;;;;;;;2.74;55.68;100805.50;4405833;32;33887;-79
2023/03/29 06:18:41;;;;;;;10.80;5.22;;;;;;;2.93;55.81;100803.88;4430467;32;33953;-79
2023/03/29 06:21:09;;;;;;;12.33;6.37;;;;;;;3.19;55.82;100800.22;4429832;32;33768;-79
2023/03/29 06:23:37;;;;;;;12.95;7.75;;;;;;;3.36;55.36;100806.84;4444117;32;33562;-80
2023/03/29 06:26:05;;;;;;;12.60;6.68;;;;;;;2.93;57.39;100814.13;4388337;32;33986;-81
2023/03/29 06:28:33;;;;;;;11.12;6.30;;;;;;;2.60;57.65;100811.94;4397524;32;33332;-78
2023/03/29 06:31:01;;;;;;;10.07;6.07;;;;;;;3.29;56.57;100812.19;4396560;32;33493;-78
2023/03/29 06:33:32;;;;;;;14.52;7.12;;;;;;;2.68;55.95;100815.19;4430647;32;33348;-79
2023/03/29 06:36:00;;;;;;;12.77;5.60;;;;;;;3.34;55.17;100813.50;4434257;32;34581;-77
2023/03/29 06:38:29;;;;;;;13.00;6.10;;;;;;;3.09;54.19;100807.81;4384679;32;33416;-79
2023/03/29 06:41:02;;;;;;;13.70;6.85;;;;;;;3.03;54.13;100812.41;4403767;32;33272;-81
2023/03/29 06:43:31;;;;;;;11.30;5.80;;;;;;;3.10;54.26;100807.09;4438314;32;33269;-79
2023/03/29 06:46:07;;;;;;;12.90;6.80;;;;;;;3.23;53.36;100815.09;4389237;32;34256;-76
2023/03/29 06:48:35;;;;;;;14.67;6.97;;;;;;;3.47;53.84;100812.94;4429726;32;33750;-79
2023/03/29 06:51:06;;;;;;;13.82;6.95;;;;;;;3.40;52.97;100811.50;4409909;32;34095;-79
2023/03/29 06:53:34;;;;;;;13.93;6.35;;;;;;;3.48;53.55;100809.63;4391315;32;33795;-80
2023/03/29 06:56:07;;;;;;;10.75;6.10;;;;;;;4.19;52.54;100810.66;4410903;32;33844;-79
2023/03/29 06:58:36;;;;;;;12.37;5.90;;;;;;;4.67;51.58;100810.47;4409074;32;33201;-79
2023/03/29 07:01:05;;;;;;;10.43;5.78;;;;;;;4.34;51.40;100819.66;4393333;32;33300;-78
2023/03/29 07:03:38;;;;;;;11.70;5.68;;;;;;;3.66;51.76;100816.37;4397521;32;33356;-78
2023/03/29 07:06:10;;;;;;;8.75;4.90;;;;;;;4.82;49.49;100821.13;4413170;32;32930;-79
2023/03/29 07:08:46;;;;;;;9.68;5.03;;;;;;;5.66;47.13;100824.59;4400811;32;32699;-78
2023/03/29 07:11:19;;;;;;;9.65;5.57;;;;;;;5.47;47.96;100832.50;4392568;32;33810;-77
2023/03/29 07:13:47;;;;;;;9.87;5.27;;;;;;;6.04;47.12;100835.41;4398866;32;33469;-76
2023/03/29 07:16:17;;;;;;;8.98;4.40;;;;;;;5.01;49.31;100838.97;4409255;32;34701;-80
2023/03/29 07:18:46;;;;;;;7.28;4.28;;;;;;;5.64;47.20;100846.69;4395239;32;32599;-77
2023/03/29 07:21:14;;;;;;;10.30;5.33;;;;;;;4.53;50.34;100838.41;4411940;32;33124;-78
2023/03/29 07:23:42;;;;;;;10.20;4.50;;;;;;;5.34;49.74;100850.25;4404664;32;33476;-79
2023/03/29 07:26:10;;;;;;;8.63;3.30;;;;;;;4.19;48.86;100855.16;4398979;32;33984;-78
2023/03/29 07:28:38;;;;;;;7.82;3.30;;;;;;;3.33;49.42;100850.13;4424322;32;31841;-80
2023/03/29 07:31:09;;;;;;;6.73;3.23;;;;;;;4.47;47.94;100855.88;4423109;32;32334;-80
2023/03/29 07:33:39;;;;;;;8.38;3.62;;;;;;;4.22;48.69;100854.53;4412226;32;32583;-77
2023/03/29 07:36:08;;;;;;;7.18;3.30;;;;;;;4.02;48.46;100855.34;4426463;32;34496;-79
2023/03/29 07:38:36;;;;;;;7.00;2.90;;;;;;;5.28;46.62;100846.41;4433942;32;34040;-80
2023/03/29 07:41:06;;;;;;;7.18;2.90;;;;;;;6.22;44.12;100850.50;4407683;32;33485;-80
2023/03/29 07:43:35;;;;;;;6.45;2.95;;;;;;;5.68;43.70;100852.22;4409577;32;30905;-78
2023/03/29 07:46:04;;;;;;;6.90;2.60;;;;;;;6.19;43.30;100845.12;4397824;32;34066;-77
2023/03/29 07:48:32;;;;;;;5.50;1.98;;;;;;;6.22;41.88;100842.78;4437866;32;34584;-77
2023/03/29 07:51:02;;;;;;;5.20;1.93;;;;;;;5.06;42.82;100845.38;4431468;32;33069;-79
2023/03/29 07:53:31;;;;;;;5.85;1.90;;;;;;;5.42;42.58;100849.19;4431815;32;31998;-77
2023/03/29 07:56:00;;;;;;;4.78;1.77;;;;;;;5.13;42.03;100855.41;4446073;32;33612;-77
2023/03/29 07:58:29;;;;;;;5.05;1.70;;;;;;;6.44;39.50;100841.09;4437980;32;32614;-78
2023/03/29 08:01:00;;;;;;;6.85;1.60;;;;;;;5.30;40.62;100846.53;4438024;32;32631;-79
2023/03/29 08:03:31;;;;;;;3.70;1.20;;;;;;;6.40;38.85;100835.62;4452642;32;32842;-78
2023/03/29 08:06:02;;;;;;;4.05;1.70;;;;;;;5.93;38.44;100841.34;4452175;32;34576;-78
2023/03/29 08:08:30;;;;;;;4.30;1.60;;;;;;;5.65;40.88;100843.37;4448561;32;33249;-79
2023/03/29 08:10:58;;;;;;;5.12;1.65;;;;;;;6.41;38.67;100846.03;4452591;32;34253;-79
2023/03/29 08:13:26;;;;;;;5.20;1.62;;;;;;;6.06;39.22;100844.13;4448097;32;33564;-77
2023/03/29 08:15:56;;;;;;;3.80;1.50;;;;;;;6.91;38.07;100832.66;4452218;32;33614;-79
2023/03/29 08:18:23;;;;;;;4.85;1.30;;;;;;;5.46;37.91;100846.09;4435942;32;33810;-79
2023/03/29 08:20:51;;;;;;;4.55;1.50;;;;;;;5.24;38.53;100838.31;4445277;32;34009;-77
2023/03/29 08:23:20;;;;;;;3.12;1.10;;;;;;;5.32;39.86;100842.41;4451233;32;33831;-78
2023/03/29 08:25:48;;;;;;;2.72;1.23;;;;;;;5.38;39.25;100839.44;4451630;32;33593;-77
2023/03/29 08:28:16;;;;;;;4.93;1.48;;;;;;;5.56;39.70;100835.78;4448689;32;33427;-79
2023/03/29 08:30:44;;;;;;;5.32;1.20;;;;;;;7.36;37.71;100833.41;4448782;32;33969;-79
2023/03/29 08:33:12;;;;;;;;;;;;;;;6.86;37.69;100823.69;4443349;32;33860;-80
2023/03/29 08:35:40;;;;;;;;;;;;;;;7.50;37.01;100827.59;4430286;32;34377;-79
2023/03/29 08:38:11;;;;;;;;;;;;;;;6.34;39.73;100835.16;4450648;32;33818;-78
2023/03/29 08:40:38;;;;;;;;;;;;;;;6.62;38.48;100830.44;4454181;32;33066;-77
2023/03/29 08:43:25;;;;;;;;;;;;;;;7.08;37.16;100828.78;4449105;32;33954;-79
2023/03/29 08:46:03;;;;;;;;;;;;;;;8.06;36.91;100823.06;4445216;32;34314;-79
2023/03/29 08:48:31;;;;;;;;;;;;;;;7.70;37.56;100833.31;4435770;32;33621;-79
2023/03/29 08:51:04;;;;;;;;;;;;;;;7.35;37.50;100823.91;4429510;32;33888;-79
2023/03/29 08:53:42;;;;;;;;;;;;;;;6.80;37.17;100813.84;4399964;32;33970;-78
2023/03/29 08:56:12;;;;;;;;;;;;;;;7.79;37.39;100815.94;4415378;32;34568;-79
2023/03/29 08:58:41;;;;;;;;;;;;;;;8.30;35.81;100811.78;4426631;32;33185;-78
2023/03/29 09:01:10;;;;;;;;;;;;;;;7.35;37.75;100806.75;4426673;32;33546;-78
2023/03/29 09:03:38;;;;;;;;;;;;;;;8.31;35.64;100798.97;4414014;32;33481;-78
2023/03/29 09:06:08;;;;;;;;;;;;;;;7.61;38.05;100803.50;4426442;32;34559;-77
2023/03/29 09:08:45;;;;;;;;;;;;;;;8.30;36.49;100801.44;4397658;32;33413;-79
2023/03/29 09:11:13;;;;;;;;;;;;;;;6.63;39.64;100803.94;4399987;32;34615;-79
2023/03/29 09:13:59;;;;;;;;;;;;;;;7.56;39.61;100793.63;4393714;32;34024;-78
2023/03/29 09:16:59;;;;;;;;;;;;;;;7.65;37.66;100797.78;4409122;32;34681;-80
2023/03/29 09:19:54;;;;;;;3.10;1.40;;;;;;;7.95;35.68;100793.00;4374865;32;32928;-79
2023/03/29 09:22:28;;;;;;;;;;;;;;;7.84;37.14;100794.84;4418960;32;34127;-80
2023/03/29 09:24:56;;;;;;;;;;;;;;;8.51;35.23;100784.00;4420435;32;33700;-79
2023/03/29 09:27:31;;;;;;;;;;;;;;;8.50;35.57;100779.63;4412473;32;33967;-78
2023/03/29 09:30:24;;;;;;;4.55;1.30;;;;;;;8.41;35.02;100775.63;4400352;32;33496;-78
2023/03/29 09:33:12;;;;;;;3.78;1.50;;;;;;;7.76;36.13;100779.59;4414232;32;33922;-77
2023/03/29 09:35:58;;;;;;;4.07;1.60;;;;;;;8.43;34.06;100775.72;4406449;32;32981;-77
2023/03/29 09:38:28;;;;;;;3.33;1.40;;;;;;;7.58;33.90;100779.19;4400293;32;34021;-78
2023/03/29 09:41:16;;;;;;;3.77;1.50;;;;;;;8.63;34.46;100766.75;4391964;32;33212;-78
2023/03/29 09:43:45;;;;;;;4.57;1.55;;;;;;;8.35;32.96;100762.25;4382791;32;31543;-81
2023/03/29 09:46:24;;;;;;;3.75;1.50;;;;;;;9.10;33.22;100776.81;4389327;32;34577;-82
2023/03/29 09:48:52;;;;;;;3.72;1.55;;;;;;;9.93;32.14;100766.63;4388889;32;33172;-80
2023/03/29 09:51:22;;;;;;;4.30;1.47;;;;;;;9.18;33.21;100762.69;4380327;32;33550;-80
2023/03/29 09:53:50;;;;;;;4.30;1.60;;;;;;;8.56;33.44;100757.72;4382296;32;33939;-75
2023/03/29 09:56:20;;;;;;;5.37;1.75;;;;;;;9.31;33.38;100758.31;4413726;32;34431;-77
2023/03/29 09:58:47;;;;;;;3.95;1.50;;;;;;;9.81;31.47;100747.72;4409642;32;33803;-77
2023/03/29 10:01:16;;;;;;;3.90;1.48;;;;;;;9.44;31.92;100758.31;4397765;32;32761;-79
2023/03/29 10:03:50;;;;;;;4.15;1.50;;;;;;;8.91;33.12;100755.72;4396817;32;33304;-81
2023/03/29 10:06:20;;;;;;;3.90;1.63;;;;;;;10.47;32.65;100746.66;4414205;32;34128;-80
2023/03/29 10:08:57;;;;;;;4.28;1.80;;;;;;;10.14;32.85;100735.09;4388709;32;32806;-80
2023/03/29 10:11:33;;;;;;;3.78;1.60;;;;;;;10.29;32.35;100736.03;4398930;32;32860;-78
2023/03/29 10:14:32;;;;;;;4.83;2.10;;;;;;;10.89;32.23;100720.59;4414162;32;33285;-78
2023/03/29 10:17:03;;;;;;;4.70;2.05;;;;;;;10.73;32.03;100714.50;4402457;32;32627;-80
2023/03/29 10:19:33;;;;;;;6.00;2.22;;;;;;;10.54;32.87;100716.81;4392874;32;34281;-79
2023/03/29 10:22:05;;;;;;;4.45;2.22;;;;;;;11.04;32.21;100720.59;4420725;32;34562;-77
2023/03/29 10:24:32;;;;;;;5.78;2.05;;;;;;;10.84;32.62;100722.03;4418587;32;33499;-80
2023/03/29 10:27:02;;;;;;;5.20;2.00;;;;;;;10.14;34.04;100724.72;4426338;32;33572;-79
2023/03/29 10:29:39;;;;;;;6.87;2.70;;;;;;;10.63;34.02;100715.66;4385085;32;33160;-80
2023/03/29 10:32:32;;;;;;;5.75;2.60;;;;;;;10.40;34.43;100711.69;4407805;32;32716;-79
2023/03/29 10:35:22;;;;;;;5.45;2.53;;;;;;;10.08;33.91;100714.00;4403019;32;34166;-79
2023/03/29 10:37:52;;;;;;;4.87;2.22;;;;;;;9.92;34.86;100702.72;4439287;32;33064;-79
2023/03/29 10:40:25;;;;;;;4.40;2.00;;;;;;;10.19;34.13;100708.69;4367906;32;34622;-80
2023/03/29 10:42:57;;;;;;;5.93;1.90;;;;;;;9.97;33.99;100698.72;4397276;32;32989;-80
2023/03/29 10:45:34;;;;;;;5.32;2.20;;;;;;;10.98;32.43;100698.69;4394226;32;33152;-78
2023/03/29 10:48:03;;;;;;;4.55;2.10;;;;;;;11.04;34.01;100689.47;4414586;32;33015;-78
2023/03/29 10:50:36;;;;;;;4.40;1.90;;;;;;;11.15;33.21;100699.66;4446882;32;33856;-79
2023/03/29 10:53:14;;;;;;;4.85;2.00;;;;;;;10.34;33.32;100693.22;4425550;32;32772;-77
2023/03/29 10:55:53;;;;;;;4.45;1.90;;;;;;;10.54;34.79;100696.09;4426840;32;33060;-79
2023/03/29 10:58:34;;;;;;;5.28;1.87;;;;;;;10.80;32.53;100688.16;4404485;32;33762;-77
2023/03/29 11:01:04;;;;;;;4.55;2.10;;;;;;;11.50;33.51;100695.53;4389892;32;33959;-78
2023/03/29 11:03:43;;;;;;;4.35;1.92;;;;;;;11.74;31.88;100687.31;4422020;32;33456;-78
2023/03/29 11:06:29;;;;;;;5.45;1.83;;;;;;;10.39;34.19;100685.69;4417234;32;32803;-77
2023/03/29 11:08:59;;;;;;;4.18;2.00;;;;;;;9.62;34.28;100687.06;4395882;32;33109;-79
2023/03/29 11:11:39;;;;;;;5.95;1.90;;;;;;;10.23;33.85;100678.69;4414127;32;33844;-79
2023/03/29 11:14:22;;;;;;;4.73;2.00;;;;;;;11.28;32.37;100674.37;4409688;32;32709;-80
2023/03/29 11:16:58;;;;;;;3.50;1.90;;;;;;;12.30;30.70;100675.56;4434703;32;32893;-78
2023/03/29 11:19:37;;;;;;;4.37;2.03;;;;;;;12.42;31.62;100677.91;4421620;32;32766;-79
2023/03/29 11:22:21;;;;;;;5.20;2.00;;;;;;;12.58;31.99;100672.69;4383001;32;31522;-77
2023/03/29 11:25:21;;;;;;;5.62;2.00;;;;;;;12.29;32.53;100673.81;4412586;32;32369;-78
2023/03/29 11:28:13;;;;;;;3.90;1.90;;;;;;;13.14;29.98;100659.00;4392143;32;33173;-77
2023/03/29 11:31:08;;;;;;;6.37;2.30;;;;;;;11.52;32.39;100665.38;4399008;32;31627;-79
2023/03/29 11:33:53;;;;;;;4.80;2.30;;;;;;;11.28;33.16;100666.59;4397280;32;34050;-79
2023/03/29 11:36:52;;;;;;;4.97;1.90;;;;;;;12.12;30.73;100654.75;4428242;32;32788;-79
2023/03/29 11:39:45;;;;;;;4.43;2.03;;;;;;;11.11;33.29;100653.63;4410312;32;32912;-78
2023/03/29 11:42:22;;;;;;;3.60;1.90;;;;;;;11.09;32.55;100646.56;4413759;32;33186;-78
2023/03/29 11:44:52;;;;;;;5.32;2.67;;;;;;;11.51;31.66;100641.94;4416381;32;31765;-79
2023/03/29 11:47:25;;;;;;;5.28;2.40;;;;;;;11.54;34.25;100655.97;4394686;32;32671;-78
2023/03/29 11:49:54;;;;;;;5.60;2.40;;;;;;;11.31;32.57;100646.94;4449612;32;34298;-79